sensor_id;sensor_type;location;lat;lon;timestamp;P1;durP1;ratioP1;P2;durP2;ratioP2
70975;SDS011;58635;51.198;6.010;2022-12-11T00:01:54;36.88;;;18.05;;
70975;SDS011;58635;51.198;6.010;2022-12-11T00:04:20;37.72;;;17.42;;
70975;SDS011;58635;51.198;6.010;2022-12-11T00:06:46;39.00;;;17.98;;
70975;SDS011;58635;51.198;6.010;2022-12-11T00:09:14;38.25;;;16.35;;
70975;SDS011;58635;51.198;6.010;2022-12-11T00:11:43;33.05;;;16.50;;
70975;SDS011;58635;51.198;6.010;2022-12-11T00:14:09;36.47;;;17.23;;
70975;SDS011;58635;51.198;6.010;2022-12-11T00:16:35;32.15;;;16.10;;
70975;SDS011;58635;51.198;6.010;2022-12-11T00:19:00;33.67;;;16.50;;
70975;SDS011;58635;51.198;6.010;2022-12-11T00:21:26;32.08;;;15.38;;
70975;SDS011;58635;51.198;6.010;2022-12-11T00:23:51;31.63;;;16.45;;
70975;SDS011;58635;51.198;6.010;2022-12-11T00:26:17;32.45;;;16.25;;
70975;SDS011;58635;51.198;6.010;2022-12-11T00:28:43;32.72;;;15.77;;
70975;SDS011;58635;51.198;6.010;2022-12-11T00:31:10;35.63;;;17.05;;
70975;SDS011;58635;51.198;6.010;2022-12-11T00:33:39;35.05;;;15.40;;
70975;SDS011;58635;51.198;6.010;2022-12-11T00:36:09;34.50;;;16.55;;
70975;SDS011;58635;51.198;6.010;2022-12-11T00:38:36;35.53;;;16.88;;
70975;SDS011;58635;51.198;6.010;2022-12-11T00:41:02;32.22;;;15.30;;
70975;SDS011;58635;51.198;6.010;2022-12-11T00:43:27;32.63;;;15.75;;
70975;SDS011;58635;51.198;6.010;2022-12-11T00:45:53;34.30;;;15.95;;
70975;SDS011;58635;51.198;6.010;2022-12-11T00:48:18;30.63;;;15.90;;
70975;SDS011;58635;51.198;6.010;2022-12-11T00:50:43;31.45;;;16.15;;
70975;SDS011;58635;51.198;6.010;2022-12-11T00:53:09;33.65;;;16.10;;
70975;SDS011;58635;51.198;6.010;2022-12-11T00:55:38;30.73;;;14.75;;
70975;SDS011;58635;51.198;6.010;2022-12-11T00:58:05;36.67;;;16.75;;
70975;SDS011;58635;51.198;6.010;2022-12-11T01:00:31;33.15;;;16.30;;
70975;SDS011;58635;51.198;6.010;2022-12-11T01:02:56;32.70;;;15.65;;
70975;SDS011;58635;51.198;6.010;2022-12-11T01:05:21;32.22;;;15.57;;
70975;SDS011;58635;51.198;6.010;2022-12-11T01:07:47;31.92;;;16.00;;
70975;SDS011;58635;51.198;6.010;2022-12-11T01:10:13;30.95;;;15.40;;
70975;SDS011;58635;51.198;6.010;2022-12-11T01:12:58;34.13;;;16.10;;
70975;SDS011;58635;51.198;6.010;2022-12-11T01:15:26;32.13;;;15.38;;
70975;SDS011;58635;51.198;6.010;2022-12-11T01:17:57;33.80;;;15.25;;
70975;SDS011;58635;51.198;6.010;2022-12-11T01:20:23;32.20;;;15.80;;
70975;SDS011;58635;51.198;6.010;2022-12-11T01:22:53;39.78;;;17.55;;
70975;SDS011;58635;51.198;6.010;2022-12-11T01:25:19;36.40;;;16.08;;
70975;SDS011;58635;51.198;6.010;2022-12-11T01:27:45;34.60;;;15.43;;
70975;SDS011;58635;51.198;6.010;2022-12-11T01:30:11;34.72;;;15.07;;
70975;SDS011;58635;51.198;6.010;2022-12-11T01:32:37;32.42;;;15.43;;
70975;SDS011;58635;51.198;6.010;2022-12-11T01:35:03;36.28;;;15.18;;
70975;SDS011;58635;51.198;6.010;2022-12-11T01:37:29;32.15;;;15.27;;
70975;SDS011;58635;51.198;6.010;2022-12-11T01:39:55;33.00;;;15.07;;
70975;SDS011;58635;51.198;6.010;2022-12-11T01:42:20;32.30;;;15.38;;
70975;SDS011;58635;51.198;6.010;2022-12-11T01:47:11;32.95;;;14.88;;
70975;SDS011;58635;51.198;6.010;2022-12-11T01:49:36;31.52;;;15.02;;
70975;SDS011;58635;51.198;6.010;2022-12-11T01:52:11;34.03;;;15.20;;
70975;SDS011;58635;51.198;6.010;2022-12-11T01:54:41;29.15;;;14.32;;
70975;SDS011;58635;51.198;6.010;2022-12-11T01:57:07;32.42;;;14.77;;
70975;SDS011;58635;51.198;6.010;2022-12-11T01:59:36;31.83;;;14.27;;
70975;SDS011;58635;51.198;6.010;2022-12-11T02:02:09;32.72;;;15.15;;
70975;SDS011;58635;51.198;6.010;2022-12-11T02:04:41;31.63;;;14.55;;
70975;SDS011;58635;51.198;6.010;2022-12-11T02:07:08;36.67;;;14.57;;
70975;SDS011;58635;51.198;6.010;2022-12-11T02:09:34;30.70;;;14.70;;
70975;SDS011;58635;51.198;6.010;2022-12-11T02:14:33;32.17;;;14.02;;
70975;SDS011;58635;51.198;6.010;2022-12-11T02:27:45;32.13;;;14.68;;
70975;SDS011;58635;51.198;6.010;2022-12-11T02:30:14;30.58;;;14.82;;
70975;SDS011;58635;51.198;6.010;2022-12-11T02:32:56;27.73;;;14.00;;
70975;SDS011;58635;51.198;6.010;2022-12-11T02:35:30;31.80;;;15.15;;
70975;SDS011;58635;51.198;6.010;2022-12-11T02:38:02;32.05;;;15.18;;
70975;SDS011;58635;51.198;6.010;2022-12-11T02:40:34;29.20;;;14.27;;
70975;SDS011;58635;51.198;6.010;2022-12-11T02:43:02;28.23;;;14.15;;
70975;SDS011;58635;51.198;6.010;2022-12-11T02:45:31;29.48;;;14.38;;
70975;SDS011;58635;51.198;6.010;2022-12-11T02:47:59;32.65;;;14.85;;
70975;SDS011;58635;51.198;6.010;2022-12-11T02:50:27;28.90;;;13.73;;
70975;SDS011;58635;51.198;6.010;2022-12-11T02:52:54;32.85;;;14.90;;
70975;SDS011;58635;51.198;6.010;2022-12-11T02:55:22;29.80;;;13.70;;
70975;SDS011;58635;51.198;6.010;2022-12-11T02:57:52;30.55;;;14.40;;
70975;SDS011;58635;51.198;6.010;2022-12-11T03:00:24;28.92;;;14.05;;
70975;SDS011;58635;51.198;6.010;2022-12-11T03:02:49;29.15;;;14.73;;
70975;SDS011;58635;51.198;6.010;2022-12-11T03:05:15;28.17;;;14.25;;
70975;SDS011;58635;51.198;6.010;2022-12-11T03:07:41;30.45;;;14.65;;
70975;SDS011;58635;51.198;6.010;2022-12-11T03:10:09;33.55;;;16.17;;
70975;SDS011;58635;51.198;6.010;2022-12-11T03:12:39;32.15;;;14.95;;
70975;SDS011;58635;51.198;6.010;2022-12-11T03:15:08;32.05;;;15.27;;
70975;SDS011;58635;51.198;6.010;2022-12-11T03:17:42;33.65;;;16.35;;
70975;SDS011;58635;51.198;6.010;2022-12-11T03:23:21;31.70;;;16.13;;
70975;SDS011;58635;51.198;6.010;2022-12-11T03:26:04;35.85;;;16.80;;
70975;SDS011;58635;51.198;6.010;2022-12-11T03:28:47;34.72;;;17.05;;
70975;SDS011;58635;51.198;6.010;2022-12-11T03:31:28;33.50;;;16.92;;
70975;SDS011;58635;51.198;6.010;2022-12-11T03:33:59;32.15;;;15.82;;
70975;SDS011;58635;51.198;6.010;2022-12-11T03:36:30;30.35;;;15.73;;
70975;SDS011;58635;51.198;6.010;2022-12-11T03:38:59;33.78;;;18.48;;
70975;SDS011;58635;51.198;6.010;2022-12-11T03:41:39;33.42;;;17.23;;
70975;SDS011;58635;51.198;6.010;2022-12-11T03:44:08;32.38;;;16.67;;
70975;SDS011;58635;51.198;6.010;2022-12-11T03:46:35;32.30;;;16.75;;
70975;SDS011;58635;51.198;6.010;2022-12-11T03:49:08;32.75;;;15.70;;
70975;SDS011;58635;51.198;6.010;2022-12-11T03:51:47;31.45;;;16.38;;
70975;SDS011;58635;51.198;6.010;2022-12-11T03:54:16;29.70;;;14.45;;
70975;SDS011;58635;51.198;6.010;2022-12-11T03:56:42;29.65;;;14.90;;
70975;SDS011;58635;51.198;6.010;2022-12-11T03:59:10;26.65;;;14.27;;
70975;SDS011;58635;51.198;6.010;2022-12-11T04:01:36;26.30;;;12.85;;
70975;SDS011;58635;51.198;6.010;2022-12-11T04:04:01;29.38;;;13.35;;
70975;SDS011;58635;51.198;6.010;2022-12-11T04:06:27;24.80;;;12.55;;
70975;SDS011;58635;51.198;6.010;2022-12-11T04:08:52;26.85;;;13.10;;
70975;SDS011;58635;51.198;6.010;2022-12-11T04:11:17;27.35;;;12.73;;
70975;SDS011;58635;51.198;6.010;2022-12-11T04:14:10;24.60;;;11.48;;
70975;SDS011;58635;51.198;6.010;2022-12-11T04:16:58;24.40;;;11.85;;
70975;SDS011;58635;51.198;6.010;2022-12-11T04:19:24;25.75;;;12.23;;
70975;SDS011;58635;51.198;6.010;2022-12-11T04:22:12;26.48;;;12.43;;
70975;SDS011;58635;51.198;6.010;2022-12-11T04:24:39;25.17;;;11.52;;
70975;SDS011;58635;51.198;6.010;2022-12-11T04:27:04;24.33;;;11.80;;
70975;SDS011;58635;51.198;6.010;2022-12-11T04:29:30;23.65;;;11.45;;
70975;SDS011;58635;51.198;6.010;2022-12-11T04:31:55;25.25;;;11.45;;
70975;SDS011;58635;51.198;6.010;2022-12-11T04:34:21;20.27;;;10.73;;
70975;SDS011;58635;51.198;6.010;2022-12-11T04:36:46;22.13;;;10.32;;
70975;SDS011;58635;51.198;6.010;2022-12-11T04:39:11;20.98;;;9.75;;
70975;SDS011;58635;51.198;6.010;2022-12-11T04:41:37;22.92;;;10.82;;
70975;SDS011;58635;51.198;6.010;2022-12-11T04:44:03;22.05;;;10.43;;
70975;SDS011;58635;51.198;6.010;2022-12-11T04:46:29;18.20;;;9.70;;
70975;SDS011;58635;51.198;6.010;2022-12-11T04:48:54;19.08;;;9.27;;
70975;SDS011;58635;51.198;6.010;2022-12-11T04:51:20;23.30;;;10.45;;
70975;SDS011;58635;51.198;6.010;2022-12-11T04:53:46;21.15;;;9.80;;
70975;SDS011;58635;51.198;6.010;2022-12-11T04:56:12;21.90;;;9.95;;
70975;SDS011;58635;51.198;6.010;2022-12-11T04:58:39;18.83;;;9.25;;
70975;SDS011;58635;51.198;6.010;2022-12-11T05:01:07;19.15;;;9.55;;
70975;SDS011;58635;51.198;6.010;2022-12-11T05:03:36;20.33;;;9.63;;
70975;SDS011;58635;51.198;6.010;2022-12-11T05:06:01;22.08;;;10.07;;
70975;SDS011;58635;51.198;6.010;2022-12-11T05:08:27;22.92;;;10.05;;
70975;SDS011;58635;51.198;6.010;2022-12-11T05:10:56;18.42;;;9.05;;
70975;SDS011;58635;51.198;6.010;2022-12-11T05:13:23;19.10;;;9.50;;
70975;SDS011;58635;51.198;6.010;2022-12-11T05:15:50;18.73;;;9.20;;
70975;SDS011;58635;51.198;6.010;2022-12-11T05:18:15;17.73;;;9.55;;
70975;SDS011;58635;51.198;6.010;2022-12-11T05:20:41;20.48;;;9.52;;
70975;SDS011;58635;51.198;6.010;2022-12-11T05:23:06;18.48;;;9.35;;
70975;SDS011;58635;51.198;6.010;2022-12-11T05:25:31;19.13;;;9.13;;
70975;SDS011;58635;51.198;6.010;2022-12-11T05:27:57;20.30;;;9.63;;
70975;SDS011;58635;51.198;6.010;2022-12-11T05:30:22;16.90;;;9.18;;
70975;SDS011;58635;51.198;6.010;2022-12-11T05:32:48;17.83;;;9.50;;
70975;SDS011;58635;51.198;6.010;2022-12-11T05:35:13;18.48;;;9.05;;
70975;SDS011;58635;51.198;6.010;2022-12-11T05:37:38;18.38;;;9.43;;
70975;SDS011;58635;51.198;6.010;2022-12-11T05:40:05;18.58;;;8.88;;
70975;SDS011;58635;51.198;6.010;2022-12-11T05:42:31;18.55;;;9.90;;
70975;SDS011;58635;51.198;6.010;2022-12-11T05:44:57;19.92;;;9.60;;
70975;SDS011;58635;51.198;6.010;2022-12-11T05:47:23;17.40;;;9.38;;
70975;SDS011;58635;51.198;6.010;2022-12-11T05:49:48;18.52;;;9.13;;
70975;SDS011;58635;51.198;6.010;2022-12-11T05:52:13;18.42;;;9.65;;
70975;SDS011;58635;51.198;6.010;2022-12-11T05:54:40;18.85;;;9.65;;
70975;SDS011;58635;51.198;6.010;2022-12-11T05:57:06;16.85;;;9.65;;
70975;SDS011;58635;51.198;6.010;2022-12-11T05:59:31;16.25;;;8.98;;
70975;SDS011;58635;51.198;6.010;2022-12-11T06:01:56;18.88;;;10.05;;
70975;SDS011;58635;51.198;6.010;2022-12-11T06:04:22;19.45;;;9.50;;
70975;SDS011;58635;51.198;6.010;2022-12-11T06:06:47;19.85;;;10.10;;
70975;SDS011;58635;51.198;6.010;2022-12-11T06:09:13;16.70;;;9.75;;
70975;SDS011;58635;51.198;6.010;2022-12-11T06:11:39;17.63;;;9.02;;
70975;SDS011;58635;51.198;6.010;2022-12-11T06:14:05;18.38;;;10.10;;
70975;SDS011;58635;51.198;6.010;2022-12-11T06:16:30;17.38;;;10.13;;
70975;SDS011;58635;51.198;6.010;2022-12-11T06:18:56;16.83;;;9.65;;
70975;SDS011;58635;51.198;6.010;2022-12-11T06:21:23;17.08;;;10.32;;
70975;SDS011;58635;51.198;6.010;2022-12-11T06:23:51;17.33;;;10.27;;
70975;SDS011;58635;51.198;6.010;2022-12-11T06:26:18;17.30;;;10.43;;
70975;SDS011;58635;51.198;6.010;2022-12-11T06:28:44;17.10;;;9.90;;
70975;SDS011;58635;51.198;6.010;2022-12-11T06:31:10;18.17;;;10.88;;
70975;SDS011;58635;51.198;6.010;2022-12-11T06:33:36;18.38;;;10.20;;
70975;SDS011;58635;51.198;6.010;2022-12-11T06:36:06;14.85;;;9.38;;
70975;SDS011;58635;51.198;6.010;2022-12-11T06:38:36;17.15;;;9.32;;
70975;SDS011;58635;51.198;6.010;2022-12-11T06:41:02;17.30;;;9.32;;
70975;SDS011;58635;51.198;6.010;2022-12-11T06:43:31;16.25;;;8.70;;
70975;SDS011;58635;51.198;6.010;2022-12-11T06:45:57;16.38;;;9.55;;
70975;SDS011;58635;51.198;6.010;2022-12-11T06:48:23;16.20;;;8.88;;
70975;SDS011;58635;51.198;6.010;2022-12-11T06:50:48;14.80;;;8.43;;
70975;SDS011;58635;51.198;6.010;2022-12-11T06:53:14;15.23;;;8.07;;
70975;SDS011;58635;51.198;6.010;2022-12-11T06:55:40;15.05;;;8.50;;
70975;SDS011;58635;51.198;6.010;2022-12-11T06:58:06;15.65;;;8.55;;
70975;SDS011;58635;51.198;6.010;2022-12-11T07:00:35;16.17;;;8.27;;
70975;SDS011;58635;51.198;6.010;2022-12-11T07:03:02;14.75;;;7.70;;
70975;SDS011;58635;51.198;6.010;2022-12-11T07:05:28;14.13;;;7.30;;
70975;SDS011;58635;51.198;6.010;2022-12-11T07:07:54;14.57;;;7.38;;
70975;SDS011;58635;51.198;6.010;2022-12-11T07:10:20;15.05;;;6.82;;
70975;SDS011;58635;51.198;6.010;2022-12-11T07:12:45;14.70;;;7.47;;
70975;SDS011;58635;51.198;6.010;2022-12-11T07:15:11;15.93;;;7.30;;
70975;SDS011;58635;51.198;6.010;2022-12-11T07:17:36;12.63;;;7.70;;
70975;SDS011;58635;51.198;6.010;2022-12-11T07:20:02;15.23;;;7.25;;
70975;SDS011;58635;51.198;6.010;2022-12-11T07:22:28;14.70;;;7.05;;
70975;SDS011;58635;51.198;6.010;2022-12-11T07:24:53;17.15;;;7.88;;
70975;SDS011;58635;51.198;6.010;2022-12-11T07:27:19;14.38;;;7.88;;
70975;SDS011;58635;51.198;6.010;2022-12-11T07:29:44;14.57;;;7.32;;
70975;SDS011;58635;51.198;6.010;2022-12-11T07:32:09;14.52;;;7.57;;
70975;SDS011;58635;51.198;6.010;2022-12-11T07:34:35;14.55;;;6.95;;
70975;SDS011;58635;51.198;6.010;2022-12-11T07:37:00;14.70;;;7.05;;
70975;SDS011;58635;51.198;6.010;2022-12-11T07:39:25;15.75;;;7.07;;
70975;SDS011;58635;51.198;6.010;2022-12-11T07:41:51;14.63;;;7.00;;
70975;SDS011;58635;51.198;6.010;2022-12-11T07:44:17;13.50;;;7.72;;
70975;SDS011;58635;51.198;6.010;2022-12-11T07:46:43;12.43;;;7.00;;
70975;SDS011;58635;51.198;6.010;2022-12-11T07:49:08;16.38;;;8.35;;
70975;SDS011;58635;51.198;6.010;2022-12-11T07:51:34;14.73;;;7.03;;
70975;SDS011;58635;51.198;6.010;2022-12-11T07:54:03;16.42;;;8.13;;
70975;SDS011;58635;51.198;6.010;2022-12-11T07:56:31;15.82;;;8.50;;
70975;SDS011;58635;51.198;6.010;2022-12-11T07:58:58;17.20;;;8.77;;
70975;SDS011;58635;51.198;6.010;2022-12-11T08:01:25;15.13;;;8.23;;
70975;SDS011;58635;51.198;6.010;2022-12-11T08:03:53;15.77;;;8.60;;
70975;SDS011;58635;51.198;6.010;2022-12-11T08:06:19;13.05;;;7.97;;
70975;SDS011;58635;51.198;6.010;2022-12-11T08:08:50;14.70;;;7.63;;
70975;SDS011;58635;51.198;6.010;2022-12-11T08:11:15;15.35;;;8.23;;
70975;SDS011;58635;51.198;6.010;2022-12-11T08:13:41;13.93;;;7.82;;
70975;SDS011;58635;51.198;6.010;2022-12-11T08:16:08;14.48;;;7.93;;
70975;SDS011;58635;51.198;6.010;2022-12-11T08:18:37;15.52;;;8.50;;
70975;SDS011;58635;51.198;6.010;2022-12-11T08:21:22;13.90;;;8.02;;
70975;SDS011;58635;51.198;6.010;2022-12-11T08:23:50;15.77;;;8.90;;
70975;SDS011;58635;51.198;6.010;2022-12-11T08:26:17;16.45;;;9.43;;
70975;SDS011;58635;51.198;6.010;2022-12-11T08:28:45;17.27;;;8.77;;
70975;SDS011;58635;51.198;6.010;2022-12-11T08:31:11;15.10;;;8.98;;
70975;SDS011;58635;51.198;6.010;2022-12-11T08:33:39;15.90;;;9.68;;
70975;SDS011;58635;51.198;6.010;2022-12-11T08:36:06;19.00;;;10.38;;
70975;SDS011;58635;51.198;6.010;2022-12-11T08:38:33;19.52;;;10.38;;
70975;SDS011;58635;51.198;6.010;2022-12-11T08:43:44;17.65;;;9.98;;
70975;SDS011;58635;51.198;6.010;2022-12-11T08:46:11;16.73;;;9.13;;
70975;SDS011;58635;51.198;6.010;2022-12-11T08:48:37;15.60;;;9.23;;
70975;SDS011;58635;51.198;6.010;2022-12-11T08:51:07;16.30;;;9.68;;
70975;SDS011;58635;51.198;6.010;2022-12-11T08:53:35;13.50;;;8.38;;
70975;SDS011;58635;51.198;6.010;2022-12-11T08:56:01;13.50;;;8.45;;
70975;SDS011;58635;51.198;6.010;2022-12-11T08:58:27;13.93;;;8.60;;
70975;SDS011;58635;51.198;6.010;2022-12-11T09:00:53;14.40;;;8.38;;
70975;SDS011;58635;51.198;6.010;2022-12-11T09:03:19;15.02;;;8.70;;
70975;SDS011;58635;51.198;6.010;2022-12-11T09:05:44;12.98;;;8.05;;
70975;SDS011;58635;51.198;6.010;2022-12-11T09:08:10;13.25;;;8.15;;
70975;SDS011;58635;51.198;6.010;2022-12-11T09:10:35;13.82;;;7.80;;
70975;SDS011;58635;51.198;6.010;2022-12-11T09:13:00;14.05;;;8.27;;
70975;SDS011;58635;51.198;6.010;2022-12-11T09:15:26;12.63;;;7.53;;
70975;SDS011;58635;51.198;6.010;2022-12-11T09:17:51;13.55;;;8.43;;
70975;SDS011;58635;51.198;6.010;2022-12-11T09:20:17;12.30;;;7.35;;
70975;SDS011;58635;51.198;6.010;2022-12-11T09:22:42;13.57;;;7.68;;
70975;SDS011;58635;51.198;6.010;2022-12-11T09:25:07;12.68;;;8.02;;
70975;SDS011;58635;51.198;6.010;2022-12-11T09:27:33;14.25;;;8.50;;
70975;SDS011;58635;51.198;6.010;2022-12-11T09:29:59;15.38;;;9.90;;
70975;SDS011;58635;51.198;6.010;2022-12-11T09:32:25;15.68;;;9.38;;
70975;SDS011;58635;51.198;6.010;2022-12-11T09:34:50;14.93;;;8.15;;
70975;SDS011;58635;51.198;6.010;2022-12-11T09:37:16;13.43;;;8.57;;
70975;SDS011;58635;51.198;6.010;2022-12-11T09:39:41;13.45;;;8.32;;
70975;SDS011;58635;51.198;6.010;2022-12-11T09:42:13;14.00;;;8.00;;
70975;SDS011;58635;51.198;6.010;2022-12-11T09:44:54;12.90;;;8.32;;
70975;SDS011;58635;51.198;6.010;2022-12-11T09:52:35;14.55;;;7.90;;
70975;SDS011;58635;51.198;6.010;2022-12-11T09:55:02;14.10;;;8.38;;
70975;SDS011;58635;51.198;6.010;2022-12-11T09:57:46;13.43;;;8.52;;
70975;SDS011;58635;51.198;6.010;2022-12-11T10:17:30;12.18;;;7.47;;
70975;SDS011;58635;51.198;6.010;2022-12-11T10:20:10;11.35;;;7.05;;
70975;SDS011;58635;51.198;6.010;2022-12-11T10:22:42;12.73;;;7.32;;
70975;SDS011;58635;51.198;6.010;2022-12-11T10:25:13;10.98;;;6.75;;
70975;SDS011;58635;51.198;6.010;2022-12-11T10:27:52;11.77;;;7.28;;
70975;SDS011;58635;51.198;6.010;2022-12-11T10:30:18;14.50;;;7.32;;
70975;SDS011;58635;51.198;6.010;2022-12-11T10:35:56;11.75;;;6.97;;
70975;SDS011;58635;51.198;6.010;2022-12-11T10:43:38;11.77;;;7.38;;
70975;SDS011;58635;51.198;6.010;2022-12-11T10:46:12;13.25;;;7.15;;
70975;SDS011;58635;51.198;6.010;2022-12-11T10:48:47;11.82;;;7.28;;
70975;SDS011;58635;51.198;6.010;2022-12-11T10:51:19;13.27;;;7.60;;
70975;SDS011;58635;51.198;6.010;2022-12-11T10:53:56;12.38;;;7.30;;
70975;SDS011;58635;51.198;6.010;2022-12-11T10:56:27;14.95;;;8.07;;
70975;SDS011;58635;51.198;6.010;2022-12-11T10:58:55;14.95;;;7.82;;
70975;SDS011;58635;51.198;6.010;2022-12-11T11:01:23;14.98;;;8.00;;
70975;SDS011;58635;51.198;6.010;2022-12-11T11:03:56;12.43;;;7.47;;
70975;SDS011;58635;51.198;6.010;2022-12-11T11:06:25;12.18;;;7.40;;
70975;SDS011;58635;51.198;6.010;2022-12-11T11:08:52;13.73;;;7.57;;
70975;SDS011;58635;51.198;6.010;2022-12-11T11:11:22;14.13;;;7.65;;
70975;SDS011;58635;51.198;6.010;2022-12-11T11:13:52;15.48;;;8.23;;
70975;SDS011;58635;51.198;6.010;2022-12-11T11:16:35;14.45;;;8.05;;
70975;SDS011;58635;51.198;6.010;2022-12-11T11:19:02;16.13;;;8.63;;
70975;SDS011;58635;51.198;6.010;2022-12-11T11:21:28;12.82;;;7.85;;
70975;SDS011;58635;51.198;6.010;2022-12-11T11:23:55;15.98;;;8.00;;
70975;SDS011;58635;51.198;6.010;2022-12-11T11:26:21;14.02;;;7.72;;
70975;SDS011;58635;51.198;6.010;2022-12-11T11:28:56;13.57;;;7.57;;
70975;SDS011;58635;51.198;6.010;2022-12-11T11:31:30;13.75;;;8.35;;
70975;SDS011;58635;51.198;6.010;2022-12-11T11:34:02;14.23;;;8.30;;
70975;SDS011;58635;51.198;6.010;2022-12-11T11:36:31;13.00;;;8.07;;
70975;SDS011;58635;51.198;6.010;2022-12-11T11:41:34;12.82;;;7.78;;
70975;SDS011;58635;51.198;6.010;2022-12-11T11:44:09;13.60;;;8.20;;
70975;SDS011;58635;51.198;6.010;2022-12-11T11:46:43;14.20;;;7.53;;
70975;SDS011;58635;51.198;6.010;2022-12-11T11:58:23;13.80;;;7.63;;
70975;SDS011;58635;51.198;6.010;2022-12-11T12:00:57;14.38;;;7.95;;
70975;SDS011;58635;51.198;6.010;2022-12-11T12:03:23;13.45;;;7.55;;
70975;SDS011;58635;51.198;6.010;2022-12-11T12:14:49;12.85;;;7.38;;
70975;SDS011;58635;51.198;6.010;2022-12-11T12:17:37;13.75;;;7.50;;
70975;SDS011;58635;51.198;6.010;2022-12-11T12:20:13;13.93;;;8.32;;
70975;SDS011;58635;51.198;6.010;2022-12-11T12:28:38;11.60;;;7.28;;
70975;SDS011;58635;51.198;6.010;2022-12-11T12:31:19;16.15;;;8.45;;
70975;SDS011;58635;51.198;6.010;2022-12-11T12:34:14;13.60;;;7.75;;
70975;SDS011;58635;51.198;6.010;2022-12-11T12:36:52;13.55;;;7.15;;
70975;SDS011;58635;51.198;6.010;2022-12-11T12:42:20;13.15;;;7.90;;
70975;SDS011;58635;51.198;6.010;2022-12-11T12:47:47;13.50;;;7.63;;
70975;SDS011;58635;51.198;6.010;2022-12-11T12:50:16;13.77;;;8.27;;
70975;SDS011;58635;51.198;6.010;2022-12-11T12:52:44;13.25;;;8.15;;
70975;SDS011;58635;51.198;6.010;2022-12-11T12:57:54;13.57;;;7.85;;
70975;SDS011;58635;51.198;6.010;2022-12-11T13:00:25;16.17;;;9.20;;
70975;SDS011;58635;51.198;6.010;2022-12-11T13:02:51;12.32;;;7.95;;
70975;SDS011;58635;51.198;6.010;2022-12-11T13:05:20;13.52;;;7.95;;
70975;SDS011;58635;51.198;6.010;2022-12-11T13:07:52;14.70;;;7.78;;
70975;SDS011;58635;51.198;6.010;2022-12-11T13:12:59;13.45;;;8.45;;
70975;SDS011;58635;51.198;6.010;2022-12-11T13:17:54;14.23;;;7.95;;
70975;SDS011;58635;51.198;6.010;2022-12-11T13:20:21;14.55;;;8.50;;
70975;SDS011;58635;51.198;6.010;2022-12-11T13:22:49;12.90;;;6.95;;
70975;SDS011;58635;51.198;6.010;2022-12-11T13:25:31;13.50;;;7.63;;
70975;SDS011;58635;51.198;6.010;2022-12-11T13:29:25;14.73;;;8.60;;
70975;SDS011;58635;51.198;6.010;2022-12-11T13:31:06;15.23;;;9.00;;
70975;SDS011;58635;51.198;6.010;2022-12-11T13:33:51;13.13;;;8.20;;
70975;SDS011;58635;51.198;6.010;2022-12-11T13:38:51;15.32;;;9.70;;
70975;SDS011;58635;51.198;6.010;2022-12-11T13:41:38;14.13;;;8.35;;
70975;SDS011;58635;51.198;6.010;2022-12-11T13:44:04;14.27;;;8.63;;
70975;SDS011;58635;51.198;6.010;2022-12-11T13:46:32;14.77;;;8.75;;
70975;SDS011;58635;51.198;6.010;2022-12-11T13:49:01;15.23;;;8.52;;
70975;SDS011;58635;51.198;6.010;2022-12-11T13:51:31;13.57;;;7.95;;
70975;SDS011;58635;51.198;6.010;2022-12-11T13:54:15;16.02;;;8.70;;
70975;SDS011;58635;51.198;6.010;2022-12-11T13:56:56;14.15;;;8.45;;
70975;SDS011;58635;51.198;6.010;2022-12-11T13:59:36;15.52;;;8.63;;
70975;SDS011;58635;51.198;6.010;2022-12-11T14:02:17;12.90;;;7.68;;
70975;SDS011;58635;51.198;6.010;2022-12-11T14:04:47;14.60;;;7.72;;
70975;SDS011;58635;51.198;6.010;2022-12-11T14:07:15;15.63;;;8.45;;
70975;SDS011;58635;51.198;6.010;2022-12-11T14:09:59;18.03;;;8.63;;
70975;SDS011;58635;51.198;6.010;2022-12-11T14:12:50;16.80;;;8.90;;
70975;SDS011;58635;51.198;6.010;2022-12-11T14:15:16;14.02;;;8.85;;
70975;SDS011;58635;51.198;6.010;2022-12-11T14:17:43;15.10;;;8.52;;
70975;SDS011;58635;51.198;6.010;2022-12-11T14:20:15;13.98;;;8.88;;
70975;SDS011;58635;51.198;6.010;2022-12-11T14:22:43;13.57;;;8.60;;
70975;SDS011;58635;51.198;6.010;2022-12-11T14:25:19;15.80;;;8.02;;
70975;SDS011;58635;51.198;6.010;2022-12-11T14:27:51;13.48;;;7.90;;
70975;SDS011;58635;51.198;6.010;2022-12-11T14:32:55;14.60;;;8.68;;
70975;SDS011;58635;51.198;6.010;2022-12-11T14:35:24;14.07;;;8.07;;
70975;SDS011;58635;51.198;6.010;2022-12-11T14:37:55;12.87;;;7.73;;
70975;SDS011;58635;51.198;6.010;2022-12-11T14:40:27;13.90;;;8.00;;
70975;SDS011;58635;51.198;6.010;2022-12-11T14:42:57;13.15;;;7.85;;
70975;SDS011;58635;51.198;6.010;2022-12-11T14:47:58;13.07;;;8.05;;
70975;SDS011;58635;51.198;6.010;2022-12-11T14:50:29;15.02;;;8.25;;
70975;SDS011;58635;51.198;6.010;2022-12-11T14:53:18;14.15;;;7.30;;
70975;SDS011;58635;51.198;6.010;2022-12-11T14:55:47;13.57;;;8.40;;
70975;SDS011;58635;51.198;6.010;2022-12-11T14:58:24;15.88;;;8.75;;
70975;SDS011;58635;51.198;6.010;2022-12-11T15:00:55;12.52;;;7.53;;
70975;SDS011;58635;51.198;6.010;2022-12-11T15:05:58;13.77;;;7.75;;
70975;SDS011;58635;51.198;6.010;2022-12-11T15:15:51;13.30;;;7.78;;
70975;SDS011;58635;51.198;6.010;2022-12-11T15:18:20;15.00;;;8.75;;
70975;SDS011;58635;51.198;6.010;2022-12-11T15:20:59;14.70;;;10.15;;
70975;SDS011;58635;51.198;6.010;2022-12-11T15:23:27;13.97;;;9.00;;
70975;SDS011;58635;51.198;6.010;2022-12-11T15:25:58;13.90;;;8.70;;
70975;SDS011;58635;51.198;6.010;2022-12-11T15:28:29;13.32;;;8.18;;
70975;SDS011;58635;51.198;6.010;2022-12-11T15:30:58;12.50;;;7.95;;
70975;SDS011;58635;51.198;6.010;2022-12-11T15:33:26;12.88;;;8.20;;
70975;SDS011;58635;51.198;6.010;2022-12-11T15:35:56;11.52;;;7.47;;
70975;SDS011;58635;51.198;6.010;2022-12-11T15:38:36;12.70;;;7.55;;
70975;SDS011;58635;51.198;6.010;2022-12-11T15:41:12;13.95;;;8.32;;
70975;SDS011;58635;51.198;6.010;2022-12-11T15:43:41;12.60;;;7.43;;
70975;SDS011;58635;51.198;6.010;2022-12-11T15:46:07;14.02;;;8.65;;
70975;SDS011;58635;51.198;6.010;2022-12-11T15:48:33;16.23;;;9.30;;
70975;SDS011;58635;51.198;6.010;2022-12-11T15:50:58;13.18;;;8.23;;
70975;SDS011;58635;51.198;6.010;2022-12-11T15:53:24;12.93;;;8.45;;
70975;SDS011;58635;51.198;6.010;2022-12-11T15:55:49;13.02;;;7.95;;
70975;SDS011;58635;51.198;6.010;2022-12-11T15:58:16;13.30;;;8.73;;
70975;SDS011;58635;51.198;6.010;2022-12-11T16:00:44;11.80;;;8.02;;
70975;SDS011;58635;51.198;6.010;2022-12-11T16:03:11;17.33;;;9.43;;
70975;SDS011;58635;51.198;6.010;2022-12-11T16:05:42;16.40;;;8.93;;
70975;SDS011;58635;51.198;6.010;2022-12-11T16:08:14;14.60;;;9.55;;
70975;SDS011;58635;51.198;6.010;2022-12-11T16:10:42;16.88;;;9.90;;
70975;SDS011;58635;51.198;6.010;2022-12-11T16:13:08;14.65;;;9.48;;
70975;SDS011;58635;51.198;6.010;2022-12-11T16:15:35;16.35;;;9.00;;
70975;SDS011;58635;51.198;6.010;2022-12-11T16:18:16;14.05;;;9.15;;
70975;SDS011;58635;51.198;6.010;2022-12-11T16:20:43;15.15;;;9.80;;
70975;SDS011;58635;51.198;6.010;2022-12-11T16:23:09;13.20;;;8.77;;
70975;SDS011;58635;51.198;6.010;2022-12-11T16:25:37;14.60;;;9.68;;
70975;SDS011;58635;51.198;6.010;2022-12-11T16:28:04;14.90;;;9.63;;
70975;SDS011;58635;51.198;6.010;2022-12-11T16:30:30;14.25;;;9.52;;
70975;SDS011;58635;51.198;6.010;2022-12-11T16:32:59;16.48;;;9.43;;